sensor_id;sensor_type;location;lat;lon;timestamp;temperature;humidity
74657;DHT22;63185;45.642;13.764;2022-12-10T00:00:49;13.10;82.70
74657;DHT22;63185;45.642;13.764;2022-12-10T00:03:15;13.00;82.20
74657;DHT22;63185;45.642;13.764;2022-12-10T00:05:40;13.00;82.70
74657;DHT22;63185;45.642;13.764;2022-12-10T00:08:06;12.90;82.40
74657;DHT22;63185;45.642;13.764;2022-12-10T00:10:32;12.90;82.40
74657;DHT22;63185;45.642;13.764;2022-12-10T00:12:57;12.80;82.60
74657;DHT22;63185;45.642;13.764;2022-12-10T00:15:23;12.80;82.70
74657;DHT22;63185;45.642;13.764;2022-12-10T00:17:49;12.70;82.80
74657;DHT22;63185;45.642;13.764;2022-12-10T00:20:14;12.70;82.90
74657;DHT22;63185;45.642;13.764;2022-12-10T00:22:40;12.70;82.90
74657;DHT22;63185;45.642;13.764;2022-12-10T00:25:06;12.60;83.10
74657;DHT22;63185;45.642;13.764;2022-12-10T00:27:32;12.60;83.00
74657;DHT22;63185;45.642;13.764;2022-12-10T00:29:57;12.60;82.90
74657;DHT22;63185;45.642;13.764;2022-12-10T00:32:23;12.70;83.00
74657;DHT22;63185;45.642;13.764;2022-12-10T00:34:49;12.80;82.70
74657;DHT22;63185;45.642;13.764;2022-12-10T00:37:14;12.80;82.60
74657;DHT22;63185;45.642;13.764;2022-12-10T00:39:40;12.80;82.70
74657;DHT22;63185;45.642;13.764;2022-12-10T00:42:06;12.80;82.80
74657;DHT22;63185;45.642;13.764;2022-12-10T00:44:31;12.60;83.10
74657;DHT22;63185;45.642;13.764;2022-12-10T00:46:57;12.60;82.60
74657;DHT22;63185;45.642;13.764;2022-12-10T00:49:23;12.50;82.70
74657;DHT22;63185;45.642;13.764;2022-12-10T00:51:49;12.40;83.10
74657;DHT22;63185;45.642;13.764;2022-12-10T00:54:15;12.40;83.50
74657;DHT22;63185;45.642;13.764;2022-12-10T00:56:41;12.40;83.70
74657;DHT22;63185;45.642;13.764;2022-12-10T00:59:07;12.50;83.60
74657;DHT22;63185;45.642;13.764;2022-12-10T01:01:35;12.40;83.60
74657;DHT22;63185;45.642;13.764;2022-12-10T01:04:05;12.40;83.70
74657;DHT22;63185;45.642;13.764;2022-12-10T01:06:34;12.30;83.60
74657;DHT22;63185;45.642;13.764;2022-12-10T01:09:05;12.30;83.80
74657;DHT22;63185;45.642;13.764;2022-12-10T01:11:35;12.30;83.40
74657;DHT22;63185;45.642;13.764;2022-12-10T01:14:03;12.40;83.10
74657;DHT22;63185;45.642;13.764;2022-12-10T01:16:28;12.30;82.90
74657;DHT22;63185;45.642;13.764;2022-12-10T01:18:58;12.40;82.60
74657;DHT22;63185;45.642;13.764;2022-12-10T01:21:25;12.40;82.60
74657;DHT22;63185;45.642;13.764;2022-12-10T01:23:51;12.30;83.00
74657;DHT22;63185;45.642;13.764;2022-12-10T01:26:20;12.30;82.60
74657;DHT22;63185;45.642;13.764;2022-12-10T01:28:47;12.30;82.60
74657;DHT22;63185;45.642;13.764;2022-12-10T01:31:20;12.30;82.40
74657;DHT22;63185;45.642;13.764;2022-12-10T01:33:47;12.30;82.50
74657;DHT22;63185;45.642;13.764;2022-12-10T01:36:16;12.30;82.10
74657;DHT22;63185;45.642;13.764;2022-12-10T01:38:42;12.40;82.40
74657;DHT22;63185;45.642;13.764;2022-12-10T01:41:14;12.40;82.20
74657;DHT22;63185;45.642;13.764;2022-12-10T01:46:31;12.30;82.40
74657;DHT22;63185;45.642;13.764;2022-12-10T01:48:59;12.30;82.20
74657;DHT22;63185;45.642;13.764;2022-12-10T01:51:29;12.30;82.10
74657;DHT22;63185;45.642;13.764;2022-12-10T01:53:55;12.40;82.30
74657;DHT22;63185;45.642;13.764;2022-12-10T01:56:21;12.50;82.20
74657;DHT22;63185;45.642;13.764;2022-12-10T01:58:50;12.50;81.80
74657;DHT22;63185;45.642;13.764;2022-12-10T02:09:36;12.20;81.90
74657;DHT22;63185;45.642;13.764;2022-12-10T02:15:00;12.30;82.20
74657;DHT22;63185;45.642;13.764;2022-12-10T02:17:49;12.30;82.10
74657;DHT22;63185;45.642;13.764;2022-12-10T02:25:58;12.30;81.90
74657;DHT22;63185;45.642;13.764;2022-12-10T02:31:25;12.30;82.20
74657;DHT22;63185;45.642;13.764;2022-12-10T02:33:55;12.30;82.00
74657;DHT22;63185;45.642;13.764;2022-12-10T02:36:23;12.30;81.50
74657;DHT22;63185;45.642;13.764;2022-12-10T02:38:51;12.30;81.80
74657;DHT22;63185;45.642;13.764;2022-12-10T02:41:37;12.30;81.90
74657;DHT22;63185;45.642;13.764;2022-12-10T02:44:07;12.30;82.00
74657;DHT22;63185;45.642;13.764;2022-12-10T02:46:34;12.40;82.10
74657;DHT22;63185;45.642;13.764;2022-12-10T02:49:06;12.50;82.10
74657;DHT22;63185;45.642;13.764;2022-12-10T02:51:33;12.50;81.90
74657;DHT22;63185;45.642;13.764;2022-12-10T02:54:04;12.50;82.20
74657;DHT22;63185;45.642;13.764;2022-12-10T02:56:42;12.50;82.00
74657;DHT22;63185;45.642;13.764;2022-12-10T02:59:21;12.60;81.50
74657;DHT22;63185;45.642;13.764;2022-12-10T03:02:03;12.60;81.80
74657;DHT22;63185;45.642;13.764;2022-12-10T03:05:18;12.60;81.70
74657;DHT22;63185;45.642;13.764;2022-12-10T03:07:30;12.70;81.40
74657;DHT22;63185;45.642;13.764;2022-12-10T03:10:03;12.70;81.50
74657;DHT22;63185;45.642;13.764;2022-12-10T03:12:35;12.70;81.60
74657;DHT22;63185;45.642;13.764;2022-12-10T03:15:06;12.60;81.60
74657;DHT22;63185;45.642;13.764;2022-12-10T03:17:34;12.60;82.00
74657;DHT22;63185;45.642;13.764;2022-12-10T03:20:02;12.60;82.20
74657;DHT22;63185;45.642;13.764;2022-12-10T03:22:29;12.60;82.30
74657;DHT22;63185;45.642;13.764;2022-12-10T03:24:56;12.60;82.00
74657;DHT22;63185;45.642;13.764;2022-12-10T03:27:24;12.60;81.70
74657;DHT22;63185;45.642;13.764;2022-12-10T03:29:52;12.70;81.80
74657;DHT22;63185;45.642;13.764;2022-12-10T03:32:21;12.70;81.70
74657;DHT22;63185;45.642;13.764;2022-12-10T03:34:50;12.60;81.90
74657;DHT22;63185;45.642;13.764;2022-12-10T03:37:17;12.80;81.60
74657;DHT22;63185;45.642;13.764;2022-12-10T03:39:43;12.80;81.60
74657;DHT22;63185;45.642;13.764;2022-12-10T03:42:09;12.80;81.50
74657;DHT22;63185;45.642;13.764;2022-12-10T03:44:36;12.80;81.50
74657;DHT22;63185;45.642;13.764;2022-12-10T03:47:04;12.80;81.20
74657;DHT22;63185;45.642;13.764;2022-12-10T03:49:30;12.80;81.30
74657;DHT22;63185;45.642;13.764;2022-12-10T03:51:56;12.80;81.30
74657;DHT22;63185;45.642;13.764;2022-12-10T03:54:22;12.70;81.50
74657;DHT22;63185;45.642;13.764;2022-12-10T03:56:48;12.70;81.70
74657;DHT22;63185;45.642;13.764;2022-12-10T03:59:14;12.80;81.40
74657;DHT22;63185;45.642;13.764;2022-12-10T04:01:40;12.80;81.40
74657;DHT22;63185;45.642;13.764;2022-12-10T04:04:06;12.80;81.80
74657;DHT22;63185;45.642;13.764;2022-12-10T04:06:32;12.70;82.30
74657;DHT22;63185;45.642;13.764;2022-12-10T04:08:57;12.70;82.50
74657;DHT22;63185;45.642;13.764;2022-12-10T04:11:24;12.70;82.50
74657;DHT22;63185;45.642;13.764;2022-12-10T04:13:51;12.80;82.40
74657;DHT22;63185;45.642;13.764;2022-12-10T04:16:35;12.80;82.40
74657;DHT22;63185;45.642;13.764;2022-12-10T04:19:04;12.90;82.30
74657;DHT22;63185;45.642;13.764;2022-12-10T04:21:31;12.90;82.30
74657;DHT22;63185;45.642;13.764;2022-12-10T04:24:18;13.00;82.10
74657;DHT22;63185;45.642;13.764;2022-12-10T04:27:06;13.00;82.10
74657;DHT22;63185;45.642;13.764;2022-12-10T04:29:33;13.00;82.20
74657;DHT22;63185;45.642;13.764;2022-12-10T04:31:59;13.10;82.30
74657;DHT22;63185;45.642;13.764;2022-12-10T04:34:25;13.10;82.20
74657;DHT22;63185;45.642;13.764;2022-12-10T04:36:51;13.10;81.80
74657;DHT22;63185;45.642;13.764;2022-12-10T04:39:17;13.10;81.80
74657;DHT22;63185;45.642;13.764;2022-12-10T04:41:45;13.20;81.70
74657;DHT22;63185;45.642;13.764;2022-12-10T04:44:11;13.10;82.00
74657;DHT22;63185;45.642;13.764;2022-12-10T04:46:38;13.10;82.10
74657;DHT22;63185;45.642;13.764;2022-12-10T04:49:04;13.10;82.10
74657;DHT22;63185;45.642;13.764;2022-12-10T04:51:30;13.10;82.20
74657;DHT22;63185;45.642;13.764;2022-12-10T04:53:56;13.20;82.10
74657;DHT22;63185;45.642;13.764;2022-12-10T04:56:22;13.30;81.90
74657;DHT22;63185;45.642;13.764;2022-12-10T04:58:48;13.20;81.80
74657;DHT22;63185;45.642;13.764;2022-12-10T05:01:13;13.30;81.90
74657;DHT22;63185;45.642;13.764;2022-12-10T05:03:40;13.20;81.90
74657;DHT22;63185;45.642;13.764;2022-12-10T05:06:11;13.30;81.70
74657;DHT22;63185;45.642;13.764;2022-12-10T05:08:38;13.20;81.90
74657;DHT22;63185;45.642;13.764;2022-12-10T05:11:09;13.20;81.90
74657;DHT22;63185;45.642;13.764;2022-12-10T05:13:36;13.20;82.20
74657;DHT22;63185;45.642;13.764;2022-12-10T05:16:03;13.20;82.10
74657;DHT22;63185;45.642;13.764;2022-12-10T05:18:30;13.20;82.10
74657;DHT22;63185;45.642;13.764;2022-12-10T05:20:58;13.20;82.10
74657;DHT22;63185;45.642;13.764;2022-12-10T05:23:24;13.30;81.90
74657;DHT22;63185;45.642;13.764;2022-12-10T05:26:07;13.30;81.90
74657;DHT22;63185;45.642;13.764;2022-12-10T05:28:35;13.30;81.80
74657;DHT22;63185;45.642;13.764;2022-12-10T05:31:02;13.30;81.90
74657;DHT22;63185;45.642;13.764;2022-12-10T05:33:28;13.30;81.90
74657;DHT22;63185;45.642;13.764;2022-12-10T05:35:59;13.30;82.10
74657;DHT22;63185;45.642;13.764;2022-12-10T05:38:26;13.30;82.10
74657;DHT22;63185;45.642;13.764;2022-12-10T05:40:53;13.30;82.00
74657;DHT22;63185;45.642;13.764;2022-12-10T05:43:18;13.40;82.00
74657;DHT22;63185;45.642;13.764;2022-12-10T05:45:44;13.40;82.10
74657;DHT22;63185;45.642;13.764;2022-12-10T05:48:12;13.30;82.20
74657;DHT22;63185;45.642;13.764;2022-12-10T05:50:39;13.30;82.10
74657;DHT22;63185;45.642;13.764;2022-12-10T05:53:04;13.30;82.00
74657;DHT22;63185;45.642;13.764;2022-12-10T05:55:30;13.30;82.20
74657;DHT22;63185;45.642;13.764;2022-12-10T05:58:01;13.20;82.00
74657;DHT22;63185;45.642;13.764;2022-12-10T06:00:28;13.10;82.40
74657;DHT22;63185;45.642;13.764;2022-12-10T06:02:54;13.10;82.30
74657;DHT22;63185;45.642;13.764;2022-12-10T06:05:20;13.10;82.40
74657;DHT22;63185;45.642;13.764;2022-12-10T06:07:46;13.20;82.40
74657;DHT22;63185;45.642;13.764;2022-12-10T06:10:11;13.20;82.20
74657;DHT22;63185;45.642;13.764;2022-12-10T06:12:38;13.20;82.40
74657;DHT22;63185;45.642;13.764;2022-12-10T06:15:05;13.10;82.40
74657;DHT22;63185;45.642;13.764;2022-12-10T06:17:31;13.10;82.30
74657;DHT22;63185;45.642;13.764;2022-12-10T06:19:57;13.10;82.40
74657;DHT22;63185;45.642;13.764;2022-12-10T06:22:23;13.20;82.20
74657;DHT22;63185;45.642;13.764;2022-12-10T06:24:48;13.10;82.30
74657;DHT22;63185;45.642;13.764;2022-12-10T06:27:14;13.20;82.30
74657;DHT22;63185;45.642;13.764;2022-12-10T06:29:40;13.20;82.20
74657;DHT22;63185;45.642;13.764;2022-12-10T06:32:06;13.20;82.20
74657;DHT22;63185;45.642;13.764;2022-12-10T06:34:32;13.20;82.30
74657;DHT22;63185;45.642;13.764;2022-12-10T06:36:58;13.20;82.30
74657;DHT22;63185;45.642;13.764;2022-12-10T06:39:23;13.20;82.30
74657;DHT22;63185;45.642;13.764;2022-12-10T06:41:52;13.20;82.50
74657;DHT22;63185;45.642;13.764;2022-12-10T06:44:18;13.20;82.40
74657;DHT22;63185;45.642;13.764;2022-12-10T06:46:44;13.20;82.40
74657;DHT22;63185;45.642;13.764;2022-12-10T06:49:09;13.20;82.40
74657;DHT22;63185;45.642;13.764;2022-12-10T06:51:35;13.20;82.40
74657;DHT22;63185;45.642;13.764;2022-12-10T06:54:01;13.20;82.40
74657;DHT22;63185;45.642;13.764;2022-12-10T06:56:26;13.20;82.40
74657;DHT22;63185;45.642;13.764;2022-12-10T06:58:52;13.20;82.30
74657;DHT22;63185;45.642;13.764;2022-12-10T07:01:20;13.20;82.30
74657;DHT22;63185;45.642;13.764;2022-12-10T07:03:51;13.20;82.50
74657;DHT22;63185;45.642;13.764;2022-12-10T07:06:17;13.20;82.50
74657;DHT22;63185;45.642;13.764;2022-12-10T07:08:43;13.30;82.50
74657;DHT22;63185;45.642;13.764;2022-12-10T07:11:11;13.30;82.40
74657;DHT22;63185;45.642;13.764;2022-12-10T07:13:38;13.30;82.40
74657;DHT22;63185;45.642;13.764;2022-12-10T07:16:12;13.30;82.40
74657;DHT22;63185;45.642;13.764;2022-12-10T07:18:38;13.40;82.40
74657;DHT22;63185;45.642;13.764;2022-12-10T07:21:30;13.40;82.30
74657;DHT22;63185;45.642;13.764;2022-12-10T07:23:59;13.40;82.20
74657;DHT22;63185;45.642;13.764;2022-12-10T07:26:28;13.40;82.20
74657;DHT22;63185;45.642;13.764;2022-12-10T07:28:54;13.40;82.30
74657;DHT22;63185;45.642;13.764;2022-12-10T07:31:21;13.40;82.10
74657;DHT22;63185;45.642;13.764;2022-12-10T07:33:48;13.40;82.30
74657;DHT22;63185;45.642;13.764;2022-12-10T07:36:13;13.40;82.40
74657;DHT22;63185;45.642;13.764;2022-12-10T07:38:40;13.50;82.50
74657;DHT22;63185;45.642;13.764;2022-12-10T07:41:10;13.50;82.40
74657;DHT22;63185;45.642;13.764;2022-12-10T07:43:37;13.50;82.00
74657;DHT22;63185;45.642;13.764;2022-12-10T07:48:30;13.50;82.40
74657;DHT22;63185;45.642;13.764;2022-12-10T07:50:57;13.50;82.40
74657;DHT22;63185;45.642;13.764;2022-12-10T07:53:23;13.50;82.40
74657;DHT22;63185;45.642;13.764;2022-12-10T07:55:50;13.60;82.30
74657;DHT22;63185;45.642;13.764;2022-12-10T07:58:16;13.60;82.30
74657;DHT22;63185;45.642;13.764;2022-12-10T08:00:41;13.60;82.30
74657;DHT22;63185;45.642;13.764;2022-12-10T08:03:07;13.60;82.20
74657;DHT22;63185;45.642;13.764;2022-12-10T08:05:33;13.70;82.00
74657;DHT22;63185;45.642;13.764;2022-12-10T08:07:58;13.70;81.90
74657;DHT22;63185;45.642;13.764;2022-12-10T08:10:24;13.70;81.70
74657;DHT22;63185;45.642;13.764;2022-12-10T08:12:52;13.80;81.60
74657;DHT22;63185;45.642;13.764;2022-12-10T08:15:18;13.70;81.70
74657;DHT22;63185;45.642;13.764;2022-12-10T08:17:44;13.70;81.60
74657;DHT22;63185;45.642;13.764;2022-12-10T08:20:09;13.70;81.60
74657;DHT22;63185;45.642;13.764;2022-12-10T08:22:35;13.70;81.70
74657;DHT22;63185;45.642;13.764;2022-12-10T08:25:02;13.80;81.50
74657;DHT22;63185;45.642;13.764;2022-12-10T08:27:27;13.90;81.30
74657;DHT22;63185;45.642;13.764;2022-12-10T08:29:53;13.90;81.30
74657;DHT22;63185;45.642;13.764;2022-12-10T08:32:19;13.90;81.10
74657;DHT22;63185;45.642;13.764;2022-12-10T08:34:45;13.90;81.00
74657;DHT22;63185;45.642;13.764;2022-12-10T08:37:10;13.90;81.00
74657;DHT22;63185;45.642;13.764;2022-12-10T08:39:36;13.90;80.80
74657;DHT22;63185;45.642;13.764;2022-12-10T08:42:02;14.00;80.50
74657;DHT22;63185;45.642;13.764;2022-12-10T08:44:27;14.10;80.60
74657;DHT22;63185;45.642;13.764;2022-12-10T08:46:53;14.10;80.60
74657;DHT22;63185;45.642;13.764;2022-12-10T08:49:19;14.10;80.50
74657;DHT22;63185;45.642;13.764;2022-12-10T08:51:45;14.20;80.60
74657;DHT22;63185;45.642;13.764;2022-12-10T08:54:11;14.20;80.60
74657;DHT22;63185;45.642;13.764;2022-12-10T08:56:36;14.20;80.80
74657;DHT22;63185;45.642;13.764;2022-12-10T08:59:04;14.30;80.60
74657;DHT22;63185;45.642;13.764;2022-12-10T09:01:30;14.30;80.60
74657;DHT22;63185;45.642;13.764;2022-12-10T09:03:56;14.30;79.90
74657;DHT22;63185;45.642;13.764;2022-12-10T09:06:23;14.30;79.90
74657;DHT22;63185;45.642;13.764;2022-12-10T09:08:53;14.20;80.30
74657;DHT22;63185;45.642;13.764;2022-12-10T09:11:31;14.20;80.40
74657;DHT22;63185;45.642;13.764;2022-12-10T09:13:57;14.20;80.40
74657;DHT22;63185;45.642;13.764;2022-12-10T09:16:34;14.30;80.40
74657;DHT22;63185;45.642;13.764;2022-12-10T09:19:02;14.30;79.70
74657;DHT22;63185;45.642;13.764;2022-12-10T09:21:28;14.20;80.30
74657;DHT22;63185;45.642;13.764;2022-12-10T09:23:55;14.20;80.10
74657;DHT22;63185;45.642;13.764;2022-12-10T09:26:22;14.20;79.90
74657;DHT22;63185;45.642;13.764;2022-12-10T09:28:48;14.30;80.30
74657;DHT22;63185;45.642;13.764;2022-12-10T09:31:16;14.20;80.20
74657;DHT22;63185;45.642;13.764;2022-12-10T09:33:43;14.30;80.40
74657;DHT22;63185;45.642;13.764;2022-12-10T09:36:10;14.40;80.20
74657;DHT22;63185;45.642;13.764;2022-12-10T09:38:41;14.50;79.90
74657;DHT22;63185;45.642;13.764;2022-12-10T09:44:10;14.60;79.50
74657;DHT22;63185;45.642;13.764;2022-12-10T09:52:08;14.50;79.60
74657;DHT22;63185;45.642;13.764;2022-12-10T09:54:45;14.40;79.80
74657;DHT22;63185;45.642;13.764;2022-12-10T09:57:37;14.40;80.00
74657;DHT22;63185;45.642;13.764;2022-12-10T10:00:23;14.30;79.70
74657;DHT22;63185;45.642;13.764;2022-12-10T10:02:52;14.30;79.80
74657;DHT22;63185;45.642;13.764;2022-12-10T10:05:26;14.30;80.10
74657;DHT22;63185;45.642;13.764;2022-12-10T10:07:58;14.30;79.90
74657;DHT22;63185;45.642;13.764;2022-12-10T10:10:33;14.10;80.80
74657;DHT22;63185;45.642;13.764;2022-12-10T10:13:15;14.00;81.00
74657;DHT22;63185;45.642;13.764;2022-12-10T10:15:44;14.00;81.00
74657;DHT22;63185;45.642;13.764;2022-12-10T10:18:39;13.90;81.40
74657;DHT22;63185;45.642;13.764;2022-12-10T10:21:23;13.90;81.50
74657;DHT22;63185;45.642;13.764;2022-12-10T10:23:51;13.90;81.30
74657;DHT22;63185;45.642;13.764;2022-12-10T10:26:16;13.80;81.80
74657;DHT22;63185;45.642;13.764;2022-12-10T10:28:43;13.90;81.80
74657;DHT22;63185;45.642;13.764;2022-12-10T10:31:23;13.90;81.20
74657;DHT22;63185;45.642;13.764;2022-12-10T10:34:01;13.90;81.50
74657;DHT22;63185;45.642;13.764;2022-12-10T10:36:33;14.10;81.20
74657;DHT22;63185;45.642;13.764;2022-12-10T10:39:30;14.10;80.80
74657;DHT22;63185;45.642;13.764;2022-12-10T10:41:58;14.00;81.20
74657;DHT22;63185;45.642;13.764;2022-12-10T10:44:34;14.10;80.90
74657;DHT22;63185;45.642;13.764;2022-12-10T10:47:00;14.10;80.80
74657;DHT22;63185;45.642;13.764;2022-12-10T10:49:32;14.10;80.80
74657;DHT22;63185;45.642;13.764;2022-12-10T10:52:15;14.10;81.00
74657;DHT22;63185;45.642;13.764;2022-12-10T10:54:45;14.20;81.00
74657;DHT22;63185;45.642;13.764;2022-12-10T10:57:24;14.20;80.80
74657;DHT22;63185;45.642;13.764;2022-12-10T10:59:59;14.20;80.80
74657;DHT22;63185;45.642;13.764;2022-12-10T11:02:41;14.20;80.70
74657;DHT22;63185;45.642;13.764;2022-12-10T11:05:30;14.20;80.50
74657;DHT22;63185;45.642;13.764;2022-12-10T11:08:03;14.10;80.50
74657;DHT22;63185;45.642;13.764;2022-12-10T11:10:29;14.10;80.20
74657;DHT22;63185;45.642;13.764;2022-12-10T11:12:58;14.00;81.40
74657;DHT22;63185;45.642;13.764;2022-12-10T11:15:38;13.90;81.80
74657;DHT22;63185;45.642;13.764;2022-12-10T11:18:34;13.60;82.70
74657;DHT22;63185;45.642;13.764;2022-12-10T11:23:40;13.60;82.60
74657;DHT22;63185;45.642;13.764;2022-12-10T11:28:50;13.60;83.30
74657;DHT22;63185;45.642;13.764;2022-12-10T11:31:52;13.50;83.70
74657;DHT22;63185;45.642;13.764;2022-12-10T11:50:26;13.30;80.20
74657;DHT22;63185;45.642;13.764;2022-12-10T12:03:57;13.30;78.50
74657;DHT22;63185;45.642;13.764;2022-12-10T12:07:33;13.30;78.40
74657;DHT22;63185;45.642;13.764;2022-12-10T12:13:05;13.30;77.50
74657;DHT22;63185;45.642;13.764;2022-12-10T12:16:06;13.30;77.80
74657;DHT22;63185;45.642;13.764;2022-12-10T12:18:47;13.30;77.40
74657;DHT22;63185;45.642;13.764;2022-12-10T12:21:16;13.30;77.10
74657;DHT22;63185;45.642;13.764;2022-12-10T12:24:32;13.20;76.70
74657;DHT22;63185;45.642;13.764;2022-12-10T12:26:57;13.20;77.10
74657;DHT22;63185;45.642;13.764;2022-12-10T12:32:17;13.10;77.00
74657;DHT22;63185;45.642;13.764;2022-12-10T12:34:51;13.10;77.50
74657;DHT22;63185;45.642;13.764;2022-12-10T12:37:21;13.10;76.80
74657;DHT22;63185;45.642;13.764;2022-12-10T12:40:02;13.10;76.10
74657;DHT22;63185;45.642;13.764;2022-12-10T12:42:35;12.90;77.00
74657;DHT22;63185;45.642;13.764;2022-12-10T12:45:39;13.00;77.00
74657;DHT22;63185;45.642;13.764;2022-12-10T12:48:17;13.00;76.40
74657;DHT22;63185;45.642;13.764;2022-12-10T12:50:47;13.00;75.90
74657;DHT22;63185;45.642;13.764;2022-12-10T12:53:17;13.00;75.80
74657;DHT22;63185;45.642;13.764;2022-12-10T12:56:04;13.10;75.80
74657;DHT22;63185;45.642;13.764;2022-12-10T13:04:03;13.00;73.90
74657;DHT22;63185;45.642;13.764;2022-12-10T13:06:32;12.90;74.40
74657;DHT22;63185;45.642;13.764;2022-12-10T13:09:18;12.90;74.70
74657;DHT22;63185;45.642;13.764;2022-12-10T13:17:34;12.30;74.00
74657;DHT22;63185;45.642;13.764;2022-12-10T13:25:39;12.00;75.70
74657;DHT22;63185;45.642;13.764;2022-12-10T13:31:18;11.90;76.10
74657;DHT22;63185;45.642;13.764;2022-12-10T13:41:30;11.60;73.80
74657;DHT22;63185;45.642;13.764;2022-12-10T13:44:45;11.60;74.80
74657;DHT22;63185;45.642;13.764;2022-12-10T13:49:52;11.50;74.60
74657;DHT22;63185;45.642;13.764;2022-12-10T13:52:25;11.50;75.50
74657;DHT22;63185;45.642;13.764;2022-12-10T13:57:56;11.20;74.40
74657;DHT22;63185;45.642;13.764;2022-12-10T14:00:39;11.20;75.30
74657;DHT22;63185;45.642;13.764;2022-12-10T14:06:14;11.20;74.70
74657;DHT22;63185;45.642;13.764;2022-12-10T14:09:06;11.10;74.90
74657;DHT22;63185;45.642;13.764;2022-12-10T14:11:46;11.00;74.70
74657;DHT22;63185;45.642;13.764;2022-12-10T14:14:19;10.90;74.30
74657;DHT22;63185;45.642;13.764;2022-12-10T14:16:47;11.00;75.00
74657;DHT22;63185;45.642;13.764;2022-12-10T14:19:14;10.90;74.00
74657;DHT22;63185;45.642;13.764;2022-12-10T14:21:43;10.90;74.80
74657;DHT22;63185;45.642;13.764;2022-12-10T14:24:30;10.90;75.30
74657;DHT22;63185;45.642;13.764;2022-12-10T14:27:19;10.90;74.00
74657;DHT22;63185;45.642;13.764;2022-12-10T14:29:57;10.90;74.40
74657;DHT22;63185;45.642;13.764;2022-12-10T14:32:35;10.80;74.70
74657;DHT22;63185;45.642;13.764;2022-12-10T14:35:04;10.90;74.10
74657;DHT22;63185;45.642;13.764;2022-12-10T14:37:33;10.80;74.30
74657;DHT22;63185;45.642;13.764;2022-12-10T14:40:01;10.80;74.20
74657;DHT22;63185;45.642;13.764;2022-12-10T14:42:29;10.90;74.40
74657;DHT22;63185;45.642;13.764;2022-12-10T14:44:58;11.00;74.60
74657;DHT22;63185;45.642;13.764;2022-12-10T14:47:24;11.00;73.80
74657;DHT22;63185;45.642;13.764;2022-12-10T14:49:53;10.90;73.30
74657;DHT22;63185;45.642;13.764;2022-12-10T14:52:22;10.90;72.80
74657;DHT22;63185;45.642;13.764;2022-12-10T14:54:49;10.80;73.30
74657;DHT22;63185;45.642;13.764;2022-12-10T14:57:22;10.90;73.50
74657;DHT22;63185;45.642;13.764;2022-12-10T15:02:28;10.70;73.80
74657;DHT22;63185;45.642;13.764;2022-12-10T15:04:55;10.70;73.10
74657;DHT22;63185;45.642;13.764;2022-12-10T15:07:26;10.70;72.70
74657;DHT22;63185;45.642;13.764;2022-12-10T15:09:55;10.80;73.60
74657;DHT22;63185;45.642;13.764;2022-12-10T15:14:58;10.80;72.00
74657;DHT22;63185;45.642;13.764;2022-12-10T15:17:37;10.80;72.70
74657;DHT22;63185;45.642;13.764;2022-12-10T15:20:17;10.70;72.30
74657;DHT22;63185;45.642;13.764;2022-12-10T15:22:43;10.60;73.00
74657;DHT22;63185;45.642;13.764;2022-12-10T15:25:25;10.60;73.10
74657;DHT22;63185;45.642;13.764;2022-12-10T15:27:56;10.60;71.90
74657;DHT22;63185;45.642;13.764;2022-12-10T15:30:34;10.60;72.20
74657;DHT22;63185;45.642;13.764;2022-12-10T15:33:01;10.50;73.20
74657;DHT22;63185;45.642;13.764;2022-12-10T15:35:26;10.50;73.30
74657;DHT22;63185;45.642;13.764;2022-12-10T15:37:53;10.30;73.60
74657;DHT22;63185;45.642;13.764;2022-12-10T15:40:30;10.30;73.60
74657;DHT22;63185;45.642;13.764;2022-12-10T15:43:31;10.40;72.60
74657;DHT22;63185;45.642;13.764;2022-12-10T15:45:58;10.40;72.20
74657;DHT22;63185;45.642;13.764;2022-12-10T15:48:28;10.30;71.90
74657;DHT22;63185;45.642;13.764;2022-12-10T15:50:53;10.20;72.20
74657;DHT22;63185;45.642;13.764;2022-12-10T15:53:26;10.30;72.80
74657;DHT22;63185;45.642;13.764;2022-12-10T15:55:53;10.40;73.30
74657;DHT22;63185;45.642;13.764;2022-12-10T15:58:19;10.40;72.50
74657;DHT22;63185;45.642;13.764;2022-12-10T16:00:44;10.40;72.00
74657;DHT22;63185;45.642;13.764;2022-12-10T16:03:14;10.40;72.00
74657;DHT22;63185;45.642;13.764;2022-12-10T16:05:40;10.40;71.10
74657;DHT22;63185;45.642;13.764;2022-12-10T16:10:33;10.40;71.30
74657;DHT22;63185;45.642;13.764;2022-12-10T16:13:05;10.20;70.40
74657;DHT22;63185;45.642;13.764;2022-12-10T16:15:34;10.20;71.80
74657;DHT22;63185;45.642;13.764;2022-12-10T16:18:03;10.10;72.20
74657;DHT22;63185;45.642;13.764;2022-12-10T16:20:30;10.10;70.90
74657;DHT22;63185;45.642;13.764;2022-12-10T16:22:57;10.10;71.30
74657;DHT22;63185;45.642;13.764;2022-12-10T16:25:26;10.00;70.00
74657;DHT22;63185;45.642;13.764;2022-12-10T16:27:52;10.00;70.70
74657;DHT22;63185;45.642;13.764;2022-12-10T16:30:34;10.10;71.10
74657;DHT22;63185;45.642;13.764;2022-12-10T16:33:02;10.10;70.90
74657;DHT22;63185;45.642;13.764;2022-12-10T16:35:28;10.10;70.40
74657;DHT22;63185;45.642;13.764;2022-12-10T16:37:54;10.10;69.90
74657;DHT22;63185;45.642;13.764;2022-12-10T16:40:25;10.10;69.20
74657;DHT22;63185;45.642;13.764;2022-12-10T16:42:52;10.00;69.80
74657;DHT22;63185;45.642;13.764;2022-12-10T16:45:19;10.10;70.70
74657;DHT22;63185;45.642;13.764;2022-12-10T16:47:46;9.90;69.30
74657;DHT22;63185;45.642;13.764;2022-12-10T16:50:13;9.90;69.80
74657;DHT22;63185;45.642;13.764;2022-12-10T16:52:40;9.90;69.70
74657;DHT22;63185;45.642;13.764;2022-12-10T16:55:06;9.90;70.50
74657;DHT22;63185;45.642;13.764;2022-12-10T16:57:33;9.90;70.90
74657;DHT22;63185;45.642;13.764;2022-12-10T16:59:59;9.80;69.50
74657;DHT22;63185;45.642;13.764;2022-12-10T17:02:25;9.70;70.50
74657;DHT22;63185;45.642;13.764;2022-12-10T17:04:51;9.70;70.20
74657;DHT22;63185;45.642;13.764;2022-12-10T17:07:16;9.70;69.70
74657;DHT22;63185;45.642;13.764;2022-12-10T17:09:42;9.60;69.50
74657;DHT22;63185;45.642;13.764;2022-12-10T17:12:09;9.70;69.80
74657;DHT22;63185;45.642;13.764;2022-12-10T17:14:38;9.70;69.30
74657;DHT22;63185;45.642;13.764;2022-12-10T17:17:04;9.60;68.70
74657;DHT22;63185;45.642;13.764;2022-12-10T17:19:33;9.60;69.30
74657;DHT22;63185;45.642;13.764;2022-12-10T17:21:59;9.50;68.60
74657;DHT22;63185;45.642;13.764;2022-12-10T17:24:25;9.60;68.80
74657;DHT22;63185;45.642;13.764;2022-12-10T17:26:52;9.60;68.30
74657;DHT22;63185;45.642;13.764;2022-12-10T17:29:30;9.60;68.70
74657;DHT22;63185;45.642;13.764;2022-12-10T17:31:57;9.70;67.20